createdAt,value
2022-07-28T00:00:06.133Z,84.91
2022-07-28T00:02:35.307Z,83.33
2022-07-28T00:05:02.029Z,83.40
2022-07-28T00:07:28.624Z,83.33
2022-07-28T00:10:00.164Z,82.77
2022-07-28T00:12:27.224Z,82.79
2022-07-28T00:14:54.050Z,82.97
2022-07-28T00:17:20.598Z,83.02
2022-07-28T00:19:47.178Z,83.06
2022-07-28T00:22:13.770Z,82.96
2022-07-28T00:24:41.164Z,83.26
2022-07-28T00:27:07.854Z,83.60
2022-07-28T00:29:42.512Z,84.41
2022-07-28T00:32:17.158Z,85.17
2022-07-28T00:34:43.902Z,85.62
2022-07-28T00:37:13.437Z,86.53
2022-07-28T00:39:41.895Z,86.49
2022-07-28T00:42:09.113Z,86.14
2022-07-28T00:44:36.070Z,86.75
2022-07-28T00:47:02.725Z,86.37
2022-07-28T00:49:29.577Z,86.42
2022-07-28T00:51:56.708Z,85.92
2022-07-28T00:54:23.336Z,85.97
2022-07-28T00:56:51.000Z,84.62
2022-07-28T00:59:17.571Z,84.28
2022-07-28T01:01:44.226Z,83.71
2022-07-28T01:04:11.119Z,83.67
2022-07-28T01:07:11.419Z,82.74
2022-07-28T01:09:55.843Z,81.98
2022-07-28T01:12:56.968Z,81.57
2022-07-28T01:15:33.478Z,81.88
2022-07-28T01:18:06.807Z,80.41
2022-07-28T01:20:45.454Z,80.32
2022-07-28T01:23:11.945Z,79.46
2022-07-28T01:25:57.236Z,79.93
2022-07-28T01:28:29.232Z,79.90
2022-07-28T01:30:58.927Z,80.22
2022-07-28T01:33:33.824Z,80.13
2022-07-28T01:36:09.651Z,79.78
2022-07-28T01:38:38.738Z,81.00
2022-07-28T01:41:09.995Z,81.35
2022-07-28T01:43:40.616Z,82.48
2022-07-28T01:46:09.163Z,82.46
2022-07-28T01:48:38.978Z,83.16
2022-07-28T01:51:07.521Z,82.89
2022-07-28T01:53:37.562Z,83.47
2022-07-28T01:56:06.008Z,84.46
2022-07-28T01:58:34.545Z,85.10
2022-07-28T02:01:03.703Z,85.31
2022-07-28T02:03:32.740Z,86.02
2022-07-28T02:06:02.813Z,85.99
2022-07-28T02:08:31.886Z,84.78
2022-07-28T02:11:18.847Z,85.42
2022-07-28T02:13:48.292Z,83.90
2022-07-28T02:16:17.832Z,83.93
2022-07-28T02:18:46.852Z,83.88
2022-07-28T02:21:14.975Z,83.61
2022-07-28T02:23:44.065Z,84.22
2022-07-28T02:26:13.820Z,84.21
2022-07-28T02:28:46.641Z,84.59
2022-07-28T02:31:22.581Z,84.53
2022-07-28T02:34:00.430Z,84.56
2022-07-28T02:36:34.069Z,84.92
2022-07-28T02:39:08.763Z,83.29
2022-07-28T02:41:41.735Z,83.02
2022-07-28T02:44:21.678Z,82.50
2022-07-28T02:46:52.715Z,82.73
2022-07-28T02:49:28.360Z,82.28
2022-07-28T02:51:56.581Z,82.54
2022-07-28T02:54:24.633Z,82.30
2022-07-28T02:56:54.247Z,82.76
2022-07-28T02:59:21.979Z,82.06
2022-07-28T03:01:49.648Z,82.65
2022-07-28T03:04:39.266Z,82.35
2022-07-28T03:07:08.291Z,81.39
2022-07-28T03:09:42.999Z,81.52
2022-07-28T03:12:10.935Z,80.43
2022-07-28T03:14:37.741Z,80.41
2022-07-28T03:17:05.833Z,81.17
2022-07-28T03:19:33.130Z,81.08
2022-07-28T03:21:59.893Z,80.76
2022-07-28T03:24:31.761Z,80.83
2022-07-28T03:27:02.502Z,81.61
2022-07-28T03:29:32.777Z,81.91
2022-07-28T03:32:08.329Z,82.72
2022-07-28T03:34:35.473Z,82.19
2022-07-28T03:37:15.608Z,82.21
2022-07-28T03:39:49.076Z,82.68
2022-07-28T03:42:19.656Z,82.02
2022-07-28T03:44:47.838Z,81.74
2022-07-28T03:47:14.957Z,82.00
2022-07-28T03:49:45.526Z,82.25
2022-07-28T03:52:12.940Z,81.48
2022-07-28T03:54:40.157Z,82.04
2022-07-28T03:57:06.673Z,83.19
2022-07-28T03:59:33.174Z,83.12
2022-07-28T04:01:59.866Z,83.04
2022-07-28T04:04:26.648Z,83.16
2022-07-28T04:06:53.828Z,83.47
2022-07-28T04:09:20.382Z,83.99
2022-07-28T04:11:46.953Z,83.73
2022-07-28T04:14:16.923Z,85.09
2022-07-28T04:16:46.761Z,85.70
2022-07-28T04:19:13.320Z,86.77
2022-07-28T04:21:39.947Z,87.40
2022-07-28T04:24:08.951Z,88.26
2022-07-28T04:26:35.624Z,89.00
2022-07-28T04:29:03.239Z,89.58
2022-07-28T04:31:32.005Z,90.67
2022-07-28T04:34:00.062Z,91.41
2022-07-28T04:36:28.161Z,92.57
2022-07-28T04:38:54.880Z,92.46
2022-07-28T04:41:21.539Z,93.21
2022-07-28T04:43:48.578Z,93.84
2022-07-28T04:49:21.324Z,95.58
2022-07-28T04:51:58.466Z,96.37
2022-07-28T04:54:26.801Z,96.65
2022-07-28T04:56:58.119Z,97.08
2022-07-28T04:59:25.070Z,97.33
2022-07-28T05:01:57.053Z,97.67
2022-07-28T05:04:29.247Z,97.85
2022-07-28T05:07:11.920Z,97.58
2022-07-28T05:09:43.457Z,97.26
2022-07-28T05:12:10.991Z,96.44
2022-07-28T05:17:26.059Z,95.75
2022-07-28T05:19:55.714Z,95.22
2022-07-28T05:25:24.322Z,91.69
2022-07-28T05:27:53.100Z,90.78
2022-07-28T05:30:22.535Z,89.00
2022-07-28T05:32:52.096Z,87.51
2022-07-28T05:35:21.104Z,87.63
2022-07-28T05:37:53.277Z,86.84
2022-07-28T05:40:19.858Z,87.34
2022-07-28T05:42:49.626Z,87.27
2022-07-28T05:45:20.592Z,84.43
2022-07-28T05:47:52.783Z,86.20
2022-07-28T05:50:22.338Z,86.60
2022-07-28T05:52:51.402Z,86.47
2022-07-28T05:55:19.636Z,85.71
2022-07-28T05:58:09.476Z,85.72
2022-07-28T06:00:43.037Z,84.59
2022-07-28T06:03:17.004Z,84.69
2022-07-28T06:06:14.107Z,83.38
2022-07-28T06:08:31.915Z,79.37
2022-07-28T06:11:21.588Z,78.58
2022-07-28T06:13:49.514Z,75.60
2022-07-28T06:16:18.699Z,75.01
2022-07-28T06:18:48.267Z,72.23
2022-07-28T06:21:15.038Z,73.12
2022-07-28T06:23:41.645Z,69.70
2022-07-28T06:26:08.379Z,68.90
2022-07-28T06:28:37.674Z,70.92
2022-07-28T06:31:04.510Z,68.24
2022-07-28T06:33:31.176Z,70.31
2022-07-28T06:35:58.206Z,68.95
2022-07-28T06:38:27.828Z,70.40
2022-07-28T06:40:54.781Z,69.69
2022-07-28T06:43:22.590Z,68.51
2022-07-28T06:45:49.228Z,68.60
2022-07-28T06:48:18.337Z,68.82
2022-07-28T06:50:46.328Z,69.12
2022-07-28T06:53:13.043Z,68.19
2022-07-28T06:55:41.219Z,68.23
2022-07-28T06:58:08.299Z,69.17
2022-07-28T07:00:34.969Z,67.72
2022-07-28T07:03:01.797Z,67.33
2022-07-28T07:05:32.611Z,67.52
2022-07-28T07:07:59.562Z,66.60
2022-07-28T07:10:28.710Z,64.33
2022-07-28T07:12:55.382Z,64.45
2022-07-28T07:15:22.183Z,63.24
2022-07-28T07:17:48.798Z,63.57
2022-07-28T07:20:18.121Z,63.60
2022-07-28T07:22:46.636Z,62.23
2022-07-28T07:25:16.380Z,62.08
2022-07-28T07:27:43.739Z,60.95
2022-07-28T07:30:14.935Z,61.32
2022-07-28T07:32:41.975Z,61.89
2022-07-28T07:35:09.579Z,63.05
2022-07-28T07:37:36.427Z,63.20
2022-07-28T07:40:05.043Z,63.28
2022-07-28T07:42:31.737Z,63.07
2022-07-28T07:44:58.456Z,61.56
2022-07-28T07:47:25.102Z,62.02
2022-07-28T07:49:51.779Z,62.62
2022-07-28T07:52:22.835Z,61.54
2022-07-28T07:54:49.647Z,62.07
2022-07-28T07:57:16.230Z,62.32
2022-07-28T07:59:42.969Z,61.90
2022-07-28T08:02:09.795Z,61.59
2022-07-28T08:04:38.407Z,62.32
2022-07-28T08:07:06.664Z,62.55
2022-07-28T08:09:33.977Z,62.14
2022-07-28T08:12:00.598Z,62.97
2022-07-28T08:14:27.356Z,62.86
2022-07-28T08:16:59.654Z,61.80
2022-07-28T08:19:26.680Z,61.63
2022-07-28T08:21:53.409Z,61.27
2022-07-28T08:24:32.997Z,60.28
2022-07-28T08:27:03.087Z,59.11
2022-07-28T08:29:30.832Z,56.86
2022-07-28T08:31:57.569Z,54.26
2022-07-28T08:34:33.133Z,53.21
2022-07-28T08:37:02.614Z,50.34
2022-07-28T08:39:30.241Z,49.33
2022-07-28T08:42:00.136Z,48.82
2022-07-28T08:44:37.853Z,50.44
2022-07-28T08:47:04.818Z,49.65
2022-07-28T08:49:33.374Z,47.63
2022-07-28T08:52:03.601Z,49.32
2022-07-28T08:54:33.071Z,49.21
2022-07-28T08:57:00.202Z,49.45
2022-07-28T08:59:29.123Z,50.84
2022-07-28T09:01:57.760Z,49.03
2022-07-28T09:04:26.014Z,48.06
2022-07-28T09:06:53.248Z,47.99
2022-07-28T09:09:21.623Z,47.99
2022-07-28T09:11:48.261Z,47.26
2022-07-28T09:14:15.277Z,46.86
2022-07-28T09:16:42.269Z,48.28
2022-07-28T09:19:08.914Z,48.25
2022-07-28T09:21:37.375Z,46.53
2022-07-28T09:24:04.176Z,48.08
2022-07-28T09:26:32.094Z,47.61
2022-07-28T09:28:59.206Z,46.06
2022-07-28T09:31:28.299Z,46.69
2022-07-28T09:34:03.172Z,45.38
2022-07-28T09:36:37.601Z,45.54
2022-07-28T09:39:04.607Z,43.73
2022-07-28T09:41:50.198Z,44.42
2022-07-28T09:44:20.835Z,45.05
2022-07-28T09:46:47.618Z,47.58
2022-07-28T09:49:14.612Z,46.45
2022-07-28T09:52:00.265Z,49.05
2022-07-28T09:54:27.553Z,46.49
2022-07-28T09:56:56.524Z,45.69
2022-07-28T09:59:24.046Z,45.78
2022-07-28T10:02:00.888Z,43.96
2022-07-28T10:04:29.659Z,42.64
2022-07-28T10:07:05.903Z,42.33
2022-07-28T10:09:33.490Z,40.38
2022-07-28T10:12:25.400Z,41.88
2022-07-28T10:14:54.342Z,39.73
2022-07-28T10:17:24.964Z,41.11
2022-07-28T10:19:54.315Z,41.81
2022-07-28T10:22:23.302Z,43.12
2022-07-28T10:24:53.034Z,40.85
2022-07-28T10:27:27.794Z,40.86
2022-07-28T10:30:02.525Z,40.05
2022-07-28T10:32:31.835Z,39.42
2022-07-28T10:35:05.244Z,41.08
2022-07-28T10:37:37.605Z,41.64
2022-07-28T10:40:10.267Z,40.69
2022-07-28T10:42:39.533Z,40.91
2022-07-28T10:45:08.863Z,41.01
2022-07-28T10:47:36.271Z,39.16
2022-07-28T10:50:04.212Z,38.06
2022-07-28T10:52:49.901Z,39.06
2022-07-28T10:55:31.903Z,38.32
2022-07-28T10:58:26.853Z,37.19
2022-07-28T11:00:57.160Z,39.29
2022-07-28T11:03:47.886Z,37.53
2022-07-28T11:06:28.096Z,39.78
2022-07-28T11:08:56.573Z,41.56
2022-07-28T11:11:45.174Z,40.14
2022-07-28T11:14:26.971Z,38.65
2022-07-28T11:17:10.605Z,40.53
2022-07-28T11:22:34.899Z,41.81
2022-07-28T11:25:18.906Z,42.69
2022-07-28T11:27:51.016Z,43.13
2022-07-28T11:30:32.962Z,43.02
2022-07-28T11:33:01.281Z,42.57
2022-07-28T11:35:29.595Z,41.73
2022-07-28T11:38:02.284Z,42.25
2022-07-28T11:40:34.603Z,42.40
2022-07-28T11:43:36.006Z,43.53
2022-07-28T11:46:10.169Z,41.21
2022-07-28T11:48:44.862Z,39.72
2022-07-28T11:51:13.576Z,39.03
2022-07-28T11:53:44.733Z,39.23
2022-07-28T11:56:16.349Z,38.83
2022-07-28T11:58:43.767Z,38.71
2022-07-28T12:01:19.330Z,38.60
2022-07-28T12:03:55.420Z,39.50
2022-07-28T12:06:26.191Z,39.74
2022-07-28T12:09:06.140Z,41.42
2022-07-28T12:11:35.224Z,42.51
2022-07-28T12:14:06.910Z,42.41
2022-07-28T12:16:36.519Z,43.08
2022-07-28T12:19:05.761Z,44.09
2022-07-28T12:21:35.939Z,44.25
2022-07-28T12:24:02.564Z,43.87
2022-07-28T12:26:31.681Z,43.04
2022-07-28T12:28:59.558Z,41.77
2022-07-28T12:31:32.327Z,42.77
2022-07-28T12:34:00.293Z,43.39
2022-07-28T12:36:28.729Z,42.91
2022-07-28T12:38:56.277Z,42.40
2022-07-28T12:41:22.885Z,43.37
2022-07-28T12:43:54.289Z,42.54
2022-07-28T12:46:44.494Z,42.38
2022-07-28T12:49:21.670Z,43.14
2022-07-28T12:51:48.414Z,42.79
2022-07-28T12:54:15.597Z,45.12
2022-07-28T12:56:46.634Z,43.09
2022-07-28T12:59:13.778Z,43.91
2022-07-28T13:01:51.354Z,42.98
2022-07-28T13:04:50.351Z,43.97
2022-07-28T13:07:20.253Z,43.77
2022-07-28T13:09:59.961Z,43.72
2022-07-28T13:12:35.122Z,44.63
2022-07-28T13:15:04.787Z,44.29
2022-07-28T13:17:49.347Z,45.33
2022-07-28T13:20:16.058Z,43.55
2022-07-28T13:22:45.604Z,45.15
2022-07-28T13:25:13.294Z,42.25
2022-07-28T13:27:40.096Z,44.00
2022-07-28T13:30:08.474Z,44.30
2022-07-28T13:32:37.545Z,43.40
2022-07-28T13:35:05.585Z,42.98
2022-07-28T13:37:32.202Z,45.41
2022-07-28T13:40:01.717Z,44.23
2022-07-28T13:42:30.494Z,43.91
2022-07-28T13:44:57.228Z,43.89
2022-07-28T13:47:24.394Z,43.75
2022-07-28T13:49:51.153Z,43.57
2022-07-28T13:52:32.951Z,43.71
2022-07-28T13:55:04.227Z,42.93
2022-07-28T13:57:31.177Z,44.42
2022-07-28T13:59:57.796Z,43.85
2022-07-28T14:02:26.119Z,43.08
2022-07-28T14:04:52.802Z,42.51
2022-07-28T14:07:21.316Z,43.92
2022-07-28T14:09:48.793Z,44.56
2022-07-28T14:12:15.351Z,43.86
2022-07-28T14:14:47.877Z,42.83
2022-07-28T14:17:40.139Z,43.91
2022-07-28T14:20:02.901Z,42.49
2022-07-28T14:22:29.589Z,43.49
2022-07-28T14:24:56.130Z,44.09
2022-07-28T14:27:27.160Z,43.98
2022-07-28T14:29:55.635Z,44.27
2022-07-28T14:32:22.223Z,44.68
2022-07-28T14:34:48.795Z,45.47
2022-07-28T14:37:15.366Z,44.20
2022-07-28T14:39:42.108Z,42.10
2022-07-28T14:42:10.366Z,43.31
2022-07-28T14:44:37.204Z,42.65
2022-07-28T14:47:04.285Z,43.27
2022-07-28T14:49:31.008Z,44.50
2022-07-28T14:51:59.449Z,42.80
2022-07-28T14:54:27.753Z,43.95
2022-07-28T14:56:56.294Z,44.68
2022-07-28T14:59:22.947Z,44.03
2022-07-28T15:04:18.842Z,45.41
2022-07-28T15:06:46.017Z,46.23
2022-07-28T15:09:16.529Z,44.97
2022-07-28T15:11:44.734Z,45.73
2022-07-28T15:14:11.919Z,44.65
2022-07-28T15:16:41.706Z,43.98
2022-07-28T15:19:08.932Z,44.76
2022-07-28T15:21:38.009Z,44.40
2022-07-28T15:24:05.064Z,44.07
2022-07-28T15:26:33.204Z,45.79
2022-07-28T15:28:59.837Z,45.35
2022-07-28T15:31:26.692Z,45.48
2022-07-28T15:33:58.076Z,44.92
2022-07-28T15:36:25.555Z,44.57
2022-07-28T15:38:53.722Z,43.82
2022-07-28T15:41:21.153Z,45.58
2022-07-28T15:43:48.630Z,45.39
2022-07-28T15:46:16.090Z,44.58
2022-07-28T15:48:43.845Z,45.83
2022-07-28T15:51:10.900Z,44.38
2022-07-28T15:53:38.168Z,45.26
2022-07-28T15:56:06.625Z,44.53
2022-07-28T15:58:33.758Z,45.79
2022-07-28T16:01:02.041Z,45.44
2022-07-28T16:03:29.774Z,44.16
2022-07-28T16:05:56.901Z,45.39
2022-07-28T16:08:24.014Z,46.02
2022-07-28T16:10:52.591Z,45.01
2022-07-28T16:13:33.355Z,44.70
2022-07-28T16:16:05.014Z,43.51
2022-07-28T16:18:32.049Z,43.64
2022-07-28T16:20:58.958Z,43.33
2022-07-28T16:23:25.590Z,44.47
2022-07-28T16:25:52.158Z,43.45
2022-07-28T16:28:18.788Z,44.80
2022-07-28T16:30:48.278Z,44.37
2022-07-28T16:33:15.298Z,44.30
2022-07-28T16:35:41.853Z,44.90
2022-07-28T16:38:08.429Z,43.27
2022-07-28T16:40:35.076Z,43.63
2022-07-28T16:43:04.288Z,42.73
2022-07-28T16:45:31.342Z,42.21
2022-07-28T16:47:58.831Z,43.62
2022-07-28T16:50:25.543Z,45.02
2022-07-28T16:52:54.138Z,43.90
2022-07-28T16:55:23.671Z,44.17
2022-07-28T16:57:51.480Z,44.39
2022-07-28T17:03:00.007Z,46.08
2022-07-28T17:05:26.727Z,45.02
2022-07-28T17:07:53.259Z,46.29
2022-07-28T17:10:26.400Z,45.64
2022-07-28T17:12:55.269Z,46.63
2022-07-28T17:15:23.142Z,46.61
2022-07-28T17:17:54.574Z,46.36
2022-07-28T17:20:24.434Z,46.45
2022-07-28T17:22:51.094Z,45.50
2022-07-28T17:28:05.698Z,46.30
2022-07-28T17:30:33.818Z,46.99
2022-07-28T17:33:06.252Z,46.32
2022-07-28T17:35:38.105Z,46.12
2022-07-28T17:38:07.326Z,46.85
2022-07-28T17:40:34.185Z,46.95
2022-07-28T17:43:00.854Z,46.92
2022-07-28T17:45:30.634Z,46.67
2022-07-28T17:47:57.208Z,48.27
2022-07-28T17:50:32.339Z,48.68
2022-07-28T17:52:59.006Z,48.57
2022-07-28T17:55:54.740Z,48.78
2022-07-28T17:58:27.962Z,48.25
2022-07-28T18:00:58.091Z,48.85
2022-07-28T18:03:28.482Z,48.47
2022-07-28T18:05:56.086Z,50.03
2022-07-28T18:08:23.945Z,48.92
2022-07-28T18:10:57.866Z,49.97
2022-07-28T18:13:24.430Z,50.91
2022-07-28T18:15:51.161Z,52.13
2022-07-28T18:18:17.948Z,52.67
2022-07-28T18:20:45.154Z,53.57
2022-07-28T18:23:12.329Z,53.69
2022-07-28T18:25:45.120Z,53.84
2022-07-28T18:28:13.325Z,54.29
2022-07-28T18:30:40.297Z,55.12
2022-07-28T18:33:10.592Z,55.53
2022-07-28T18:35:44.604Z,56.94
2022-07-28T18:38:14.071Z,56.69
2022-07-28T18:40:42.757Z,57.09
2022-07-28T18:43:13.198Z,58.12
2022-07-28T18:45:39.845Z,59.00
2022-07-28T18:48:08.877Z,60.11
2022-07-28T18:50:36.059Z,59.72
2022-07-28T18:53:07.634Z,60.05
2022-07-28T18:55:34.432Z,60.57
2022-07-28T18:58:00.993Z,61.06
2022-07-28T19:00:28.238Z,61.56
2022-07-28T19:02:55.196Z,62.28
2022-07-28T19:05:22.046Z,61.37
2022-07-28T19:07:48.767Z,62.09
2022-07-28T19:10:15.340Z,62.35
2022-07-28T19:12:41.979Z,62.91
2022-07-28T19:15:09.915Z,63.28
2022-07-28T19:17:40.536Z,63.60
2022-07-28T19:20:11.733Z,64.98
2022-07-28T19:22:39.670Z,65.52
2022-07-28T19:25:07.894Z,65.87
2022-07-28T19:27:36.422Z,66.38
2022-07-28T19:30:07.958Z,66.94
2022-07-28T19:32:35.687Z,68.29
2022-07-28T19:35:03.900Z,68.39
2022-07-28T19:37:30.482Z,68.78
2022-07-28T19:39:57.065Z,69.75
2022-07-28T19:42:24.787Z,70.41
2022-07-28T19:44:55.874Z,71.33
2022-07-28T19:47:23.551Z,72.06
2022-07-28T19:49:50.508Z,72.11
2022-07-28T19:52:17.245Z,72.69
2022-07-28T19:54:51.339Z,73.20
2022-07-28T19:57:18.148Z,73.54
2022-07-28T19:59:44.934Z,73.86
2022-07-28T20:02:11.732Z,74.23
2022-07-28T20:04:38.921Z,74.66
2022-07-28T20:07:05.559Z,75.37
2022-07-28T20:09:32.225Z,75.88
2022-07-28T20:11:58.928Z,75.76
2022-07-28T20:14:25.707Z,75.91
2022-07-28T20:16:53.008Z,76.86
2022-07-28T20:19:20.863Z,77.09
2022-07-28T20:21:47.537Z,77.61
2022-07-28T20:24:15.554Z,78.04
2022-07-28T20:26:42.609Z,78.27
2022-07-28T20:29:09.611Z,78.78
2022-07-28T20:31:36.924Z,79.08
2022-07-28T20:34:06.776Z,79.67
2022-07-28T20:36:36.211Z,79.84
2022-07-28T20:39:11.501Z,80.11
2022-07-28T20:41:49.572Z,80.51
2022-07-28T20:44:28.742Z,80.70
2022-07-28T20:46:58.676Z,81.07
2022-07-28T20:49:25.351Z,81.55
2022-07-28T20:51:51.991Z,81.57
2022-07-28T20:54:18.999Z,82.03
2022-07-28T20:56:45.629Z,82.23
2022-07-28T20:59:12.230Z,83.09
2022-07-28T21:01:39.578Z,82.87
2022-07-28T21:04:07.043Z,83.27
2022-07-28T21:06:38.067Z,83.48
2022-07-28T21:09:05.198Z,83.87
2022-07-28T21:11:35.098Z,84.33
2022-07-28T21:14:02.296Z,84.26
2022-07-28T21:16:29.063Z,85.00
2022-07-28T21:18:56.122Z,85.45
2022-07-28T21:21:22.740Z,85.75
2022-07-28T21:23:49.542Z,86.23
2022-07-28T21:26:17.066Z,87.04
2022-07-28T21:29:02.464Z,86.95
2022-07-28T21:31:28.989Z,87.55
2022-07-28T21:33:55.559Z,87.25
2022-07-28T21:36:22.081Z,86.99
2022-07-28T21:38:49.217Z,86.86
2022-07-28T21:41:16.357Z,86.83
2022-07-28T21:43:42.985Z,86.33
2022-07-28T21:46:09.733Z,86.80
2022-07-28T21:48:36.378Z,86.81
2022-07-28T21:51:03.081Z,86.54
2022-07-28T21:53:47.934Z,86.69
2022-07-28T21:56:14.831Z,86.75
2022-07-28T21:58:42.021Z,86.94
2022-07-28T22:01:09.353Z,87.20
2022-07-28T22:03:39.977Z,87.07
2022-07-28T22:06:07.581Z,87.38
2022-07-28T22:08:35.294Z,87.84
2022-07-28T22:11:03.615Z,87.98
2022-07-28T22:13:30.237Z,88.90
2022-07-28T22:15:56.917Z,88.67
2022-07-28T22:18:23.583Z,88.46
2022-07-28T22:20:50.350Z,88.78
2022-07-28T22:23:29.679Z,89.17
2022-07-28T22:25:56.784Z,89.03
2022-07-28T22:28:29.663Z,88.80
2022-07-28T22:30:57.388Z,88.29
2022-07-28T22:33:24.038Z,88.49
2022-07-28T22:35:51.448Z,87.49
2022-07-28T22:38:18.267Z,86.84
2022-07-28T22:40:45.010Z,85.42
2022-07-28T22:43:11.704Z,84.38
2022-07-28T22:45:48.911Z,83.20
2022-07-28T22:48:19.025Z,80.88
2022-07-28T22:50:45.676Z,80.68
2022-07-28T22:53:13.919Z,80.09
2022-07-28T22:58:24.761Z,78.67
2022-07-28T23:00:51.918Z,78.99
2022-07-28T23:03:19.163Z,79.34
2022-07-28T23:05:46.644Z,79.42
2022-07-28T23:08:13.302Z,79.71
2022-07-28T23:10:40.001Z,78.90
2022-07-28T23:13:07.683Z,78.75
2022-07-28T23:15:40.778Z,78.38
2022-07-28T23:18:10.570Z,78.32
2022-07-28T23:20:38.890Z,77.52
2022-07-28T23:23:05.699Z,78.00
2022-07-28T23:25:39.573Z,77.80
2022-07-28T23:28:07.311Z,77.94
2022-07-28T23:30:33.891Z,77.57
2022-07-28T23:33:01.550Z,77.60
2022-07-28T23:35:28.144Z,77.82
2022-07-28T23:37:54.962Z,77.89
2022-07-28T23:40:24.040Z,78.76
2022-07-28T23:42:50.643Z,78.47
2022-07-28T23:45:17.465Z,78.09
2022-07-28T23:47:44.070Z,78.70
2022-07-28T23:50:10.921Z,78.73
2022-07-28T23:52:37.500Z,79.14
2022-07-28T23:55:04.828Z,79.11
2022-07-28T23:57:31.776Z,79.46
2022-07-28T23:59:59.536Z,79.43
